createdAt,value
2022-11-16T00:01:24.199Z,98172.19
2022-11-16T00:03:52.756Z,98157.75
2022-11-16T00:06:20.872Z,98166.00
2022-11-16T00:09:10.140Z,98163.84
2022-11-16T00:11:38.267Z,98166.03
2022-11-16T00:14:05.915Z,98169.91
2022-11-16T00:16:33.266Z,98165.72
2022-11-16T00:19:03.359Z,98161.88
2022-11-16T00:21:30.985Z,98154.81
2022-11-16T00:23:57.843Z,98149.28
2022-11-16T00:26:24.981Z,98143.06
2022-11-16T00:28:55.241Z,98141.03
2022-11-16T00:31:22.535Z,98140.19
2022-11-16T00:33:49.732Z,98140.72
2022-11-16T00:36:16.653Z,98145.91
2022-11-16T00:38:43.536Z,98146.91
2022-11-16T00:41:10.531Z,98141.22
2022-11-16T00:43:37.561Z,98132.81
2022-11-16T00:46:04.444Z,98135.00
2022-11-16T00:48:31.541Z,98125.63
2022-11-16T00:50:58.381Z,98127.31
2022-11-16T00:53:24.962Z,98126.94
2022-11-16T00:55:51.503Z,98112.00
2022-11-16T00:58:18.100Z,98113.69
2022-11-16T01:00:44.711Z,98111.69
2022-11-16T01:03:11.981Z,98111.19
2022-11-16T01:05:39.077Z,98106.81
2022-11-16T01:08:06.424Z,98100.78
2022-11-16T01:10:33.250Z,98101.81
2022-11-16T01:12:59.839Z,98103.31
2022-11-16T01:15:27.717Z,98099.13
2022-11-16T01:17:56.017Z,98097.09
2022-11-16T01:20:26.243Z,98094.75
2022-11-16T01:22:53.325Z,98098.28
2022-11-16T01:25:21.173Z,98086.00
2022-11-16T01:27:47.991Z,98083.34
2022-11-16T01:30:15.487Z,98093.44
2022-11-16T01:32:42.216Z,98090.75
2022-11-16T01:35:10.278Z,98084.53
2022-11-16T01:37:36.990Z,98080.00
2022-11-16T01:40:04.055Z,98070.44
2022-11-16T01:42:32.026Z,98069.09
2022-11-16T01:45:03.829Z,98063.41
2022-11-16T01:47:31.178Z,98063.72
2022-11-16T01:50:14.607Z,98067.25
2022-11-16T01:52:57.302Z,98055.88
2022-11-16T01:55:25.118Z,98049.16
2022-11-16T01:57:51.740Z,98049.50
2022-11-16T02:00:18.709Z,98050.16
2022-11-16T02:02:45.462Z,98042.94
2022-11-16T02:05:16.493Z,98044.13
2022-11-16T02:08:21.465Z,98033.91
2022-11-16T02:10:47.999Z,98042.13
2022-11-16T02:13:28.397Z,98040.13
2022-11-16T02:16:00.029Z,98034.59
2022-11-16T02:18:31.881Z,98037.09
2022-11-16T02:21:06.404Z,98037.13
2022-11-16T02:23:51.811Z,98026.72
2022-11-16T02:26:37.218Z,98024.69
2022-11-16T02:29:34.461Z,98026.72
2022-11-16T02:32:16.370Z,98026.75
2022-11-16T02:34:49.395Z,98025.91
2022-11-16T02:37:20.677Z,98021.53
2022-11-16T02:39:52.729Z,98021.03
2022-11-16T02:42:27.969Z,98028.72
2022-11-16T02:44:55.766Z,98024.38
2022-11-16T02:47:27.281Z,98027.56
2022-11-16T02:50:00.450Z,98020.88
2022-11-16T02:52:28.795Z,98022.72
2022-11-16T02:54:55.752Z,98021.88
2022-11-16T02:57:39.372Z,98010.97
2022-11-16T03:00:08.765Z,98011.81
2022-11-16T03:02:43.812Z,98010.66
2022-11-16T03:05:16.304Z,98015.66
2022-11-16T03:08:00.322Z,98013.34
2022-11-16T03:10:45.455Z,98012.00
2022-11-16T03:13:16.594Z,98006.94
2022-11-16T03:15:44.311Z,98004.44
2022-11-16T03:18:16.078Z,97996.75
2022-11-16T03:20:44.328Z,97992.53
2022-11-16T03:23:12.849Z,97995.91
2022-11-16T03:25:52.814Z,97997.91
2022-11-16T03:28:31.755Z,98000.44
2022-11-16T03:31:07.956Z,97987.19
2022-11-16T03:33:43.127Z,97989.50
2022-11-16T03:36:34.346Z,97981.47
2022-11-16T03:39:06.909Z,97984.16
2022-11-16T03:41:36.729Z,97973.97
2022-11-16T03:44:04.910Z,97972.63
2022-11-16T03:46:31.780Z,97973.28
2022-11-16T03:48:59.678Z,97968.06
2022-11-16T03:51:26.585Z,97966.72
2022-11-16T03:53:53.200Z,97959.38
2022-11-16T03:56:20.245Z,97955.84
2022-11-16T03:58:46.962Z,97959.72
2022-11-16T04:01:13.615Z,97957.53
2022-11-16T04:03:40.330Z,97961.91
2022-11-16T04:06:25.861Z,97959.03
2022-11-16T04:09:11.160Z,97951.34
2022-11-16T04:11:56.688Z,97945.81
2022-11-16T04:14:43.180Z,97940.97
2022-11-16T04:17:32.480Z,97929.25
2022-11-16T04:20:17.980Z,97932.72
2022-11-16T04:23:14.351Z,97930.72
2022-11-16T04:25:43.802Z,97932.56
2022-11-16T04:28:13.663Z,97932.44
2022-11-16T04:31:11.063Z,97923.34
2022-11-16T04:33:56.407Z,97925.03
2022-11-16T04:36:41.779Z,97928.22
2022-11-16T04:39:08.888Z,97926.88
2022-11-16T04:41:54.454Z,97937.28
2022-11-16T04:44:24.688Z,97930.59
2022-11-16T04:47:08.702Z,97925.22
2022-11-16T04:49:35.320Z,97921.72
2022-11-16T04:52:01.914Z,97915.00
2022-11-16T04:54:28.547Z,97914.16
2022-11-16T04:56:55.132Z,97920.03
2022-11-16T04:59:21.712Z,97917.84
2022-11-16T05:02:06.933Z,97928.72
2022-11-16T05:04:33.660Z,97927.91
2022-11-16T05:07:00.438Z,97916.16
2022-11-16T05:09:27.037Z,97920.53
2022-11-16T05:11:53.607Z,97927.22
2022-11-16T05:14:20.284Z,97925.88
2022-11-16T05:16:46.889Z,97925.88
2022-11-16T05:19:32.028Z,97913.31
2022-11-16T05:21:58.551Z,97906.97
2022-11-16T05:24:34.034Z,97906.97
2022-11-16T05:27:08.880Z,97904.94
2022-11-16T05:29:36.310Z,97900.91
2022-11-16T05:32:04.024Z,97897.75
2022-11-16T05:34:30.823Z,97901.41
2022-11-16T05:36:57.610Z,97901.75
2022-11-16T05:39:24.517Z,97896.56
2022-11-16T05:41:51.361Z,97900.91
2022-11-16T05:44:18.228Z,97913.47
2022-11-16T05:46:45.688Z,97912.13
2022-11-16T05:49:13.712Z,97912.97
2022-11-16T05:51:41.866Z,97917.00
2022-11-16T05:54:08.570Z,97912.97
2022-11-16T05:56:35.501Z,97916.16
2022-11-16T05:59:02.354Z,97916.34
2022-11-16T06:01:29.227Z,97922.69
2022-11-16T06:03:56.002Z,97913.97
2022-11-16T06:06:22.598Z,97919.00
2022-11-16T06:08:49.322Z,97920.84
2022-11-16T06:11:15.938Z,97920.47
2022-11-16T06:13:42.517Z,97917.09
2022-11-16T06:16:09.567Z,97916.56
2022-11-16T06:18:41.009Z,97914.69
2022-11-16T06:21:08.676Z,97919.84
2022-11-16T06:23:35.674Z,97915.56
2022-11-16T06:26:02.859Z,97909.97
2022-11-16T06:28:29.547Z,97906.56
2022-11-16T06:30:56.265Z,97904.06
2022-11-16T06:33:23.266Z,97912.31
2022-11-16T06:35:49.840Z,97916.66
2022-11-16T06:38:19.556Z,97906.75
2022-11-16T06:40:55.310Z,97899.03
2022-11-16T06:43:22.766Z,97901.03
2022-11-16T06:45:51.951Z,97899.75
2022-11-16T06:48:19.291Z,97895.75
2022-11-16T06:50:48.158Z,97897.69
2022-11-16T06:53:14.838Z,97900.66
2022-11-16T06:55:41.424Z,97898.50
2022-11-16T06:58:08.069Z,97899.53
2022-11-16T07:00:34.858Z,97895.81
2022-11-16T07:03:04.888Z,97895.94
2022-11-16T07:05:32.317Z,97888.25
2022-11-16T07:07:59.294Z,97887.22
2022-11-16T07:10:26.305Z,97887.16
2022-11-16T07:12:52.934Z,97887.88
2022-11-16T07:15:19.652Z,97892.84
2022-11-16T07:17:46.296Z,97894.75
2022-11-16T07:20:13.219Z,97894.22
2022-11-16T07:22:39.923Z,97892.72
2022-11-16T07:25:07.190Z,97882.94
2022-11-16T07:27:33.913Z,97883.72
2022-11-16T07:30:02.210Z,97874.50
2022-11-16T07:32:31.008Z,97877.97
2022-11-16T07:34:59.455Z,97879.84
2022-11-16T07:37:26.321Z,97872.84
2022-11-16T07:39:53.145Z,97867.81
2022-11-16T07:42:19.926Z,97864.78
2022-11-16T07:44:46.497Z,97871.53
2022-11-16T07:47:13.247Z,97874.50
2022-11-16T07:49:39.870Z,97874.63
2022-11-16T07:52:09.308Z,97877.06
2022-11-16T07:54:36.589Z,97884.94
2022-11-16T07:57:03.308Z,97870.97
2022-11-16T07:59:29.913Z,97869.31
2022-11-16T08:01:56.717Z,97874.34
2022-11-16T08:04:23.507Z,97868.00
2022-11-16T08:06:51.845Z,97873.88
2022-11-16T08:09:18.758Z,97875.25
2022-11-16T08:11:45.367Z,97869.81
2022-11-16T08:14:11.951Z,97862.97
2022-11-16T08:16:38.687Z,97869.19
2022-11-16T08:19:05.362Z,97867.03
2022-11-16T08:21:31.939Z,97864.09
2022-11-16T08:23:59.110Z,97859.91
2022-11-16T08:26:26.095Z,97860.63
2022-11-16T08:28:53.994Z,97857.03
2022-11-16T08:31:26.735Z,97850.81
2022-11-16T08:33:53.966Z,97857.19
2022-11-16T08:36:22.640Z,97844.72
2022-11-16T08:38:50.656Z,97851.19
2022-11-16T08:41:18.348Z,97861.41
2022-11-16T08:43:47.337Z,97852.50
2022-11-16T08:46:14.375Z,97862.00
2022-11-16T08:48:41.956Z,97860.69
2022-11-16T08:51:19.985Z,97856.03
2022-11-16T08:53:49.050Z,97856.81
2022-11-16T08:56:17.848Z,97850.25
2022-11-16T08:58:47.036Z,97845.25
2022-11-16T09:01:17.549Z,97842.50
2022-11-16T09:03:44.731Z,97841.69
2022-11-16T09:06:12.748Z,97833.03
2022-11-16T09:08:41.804Z,97829.91
2022-11-16T09:11:10.577Z,97835.84
2022-11-16T09:16:22.380Z,97826.97
2022-11-16T09:18:50.759Z,97825.09
2022-11-16T09:21:22.235Z,97814.59
2022-11-16T09:23:49.698Z,97812.19
2022-11-16T09:26:19.118Z,97820.94
2022-11-16T09:28:45.760Z,97811.88
2022-11-16T09:31:12.361Z,97806.28
2022-11-16T09:33:38.943Z,97793.97
2022-11-16T09:36:08.560Z,97794.38
2022-11-16T09:39:13.317Z,97798.78
2022-11-16T09:41:34.084Z,97815.69
2022-11-16T09:44:15.864Z,97805.44
2022-11-16T09:46:49.728Z,97795.31
2022-11-16T09:49:21.351Z,97792.41
2022-11-16T09:51:53.070Z,97782.31
2022-11-16T09:54:24.348Z,97772.88
2022-11-16T09:56:57.238Z,97768.16
2022-11-16T09:59:27.220Z,97764.72
2022-11-16T10:02:15.208Z,97751.66
2022-11-16T10:05:00.573Z,97756.06
2022-11-16T10:07:41.612Z,97748.25
2022-11-16T10:10:13.790Z,97745.19
2022-11-16T10:12:54.910Z,97741.69
2022-11-16T10:15:42.946Z,97733.31
2022-11-16T10:18:35.091Z,97731.66
2022-11-16T10:21:26.096Z,97729.78
2022-11-16T10:24:17.402Z,97729.56
2022-11-16T10:27:21.993Z,97718.81
2022-11-16T10:30:00.937Z,97729.22
2022-11-16T10:32:31.124Z,97727.03
2022-11-16T10:35:06.204Z,97727.03
2022-11-16T10:37:37.189Z,97732.66
2022-11-16T10:40:21.112Z,97723.72
2022-11-16T10:42:57.820Z,97717.19
2022-11-16T10:45:32.737Z,97718.22
2022-11-16T10:48:15.756Z,97720.22
2022-11-16T10:50:51.745Z,97716.75
2022-11-16T10:53:44.452Z,97712.50
2022-11-16T10:56:28.149Z,97710.75
2022-11-16T10:59:02.871Z,97707.91
2022-11-16T11:01:29.427Z,97709.03
2022-11-16T11:03:56.077Z,97709.88
2022-11-16T11:06:26.025Z,97695.84
2022-11-16T11:08:52.933Z,97695.53
2022-11-16T11:11:40.631Z,97683.56
2022-11-16T11:14:14.370Z,97691.28
2022-11-16T11:16:41.938Z,97677.91
2022-11-16T11:19:29.056Z,97677.56
2022-11-16T11:22:05.061Z,97674.28
2022-11-16T11:24:47.784Z,97668.63
2022-11-16T11:27:23.180Z,97672.69
2022-11-16T11:29:58.752Z,97669.13
2022-11-16T11:32:33.031Z,97664.50
2022-11-16T11:35:01.046Z,97658.47
2022-11-16T11:37:33.134Z,97657.22
2022-11-16T11:40:21.133Z,97656.34
2022-11-16T11:43:01.097Z,97659.47
2022-11-16T11:45:38.518Z,97649.78
2022-11-16T11:48:25.094Z,97648.44
2022-11-16T11:51:17.161Z,97644.81
2022-11-16T11:53:56.409Z,97638.59
2022-11-16T11:56:24.289Z,97634.00
2022-11-16T11:58:51.995Z,97626.50
2022-11-16T12:01:44.147Z,97621.34
2022-11-16T12:04:29.033Z,97614.16
2022-11-16T12:07:22.382Z,97602.56
2022-11-16T12:10:10.531Z,97603.28
2022-11-16T12:12:52.285Z,97597.75
2022-11-16T12:15:46.594Z,97597.47
2022-11-16T12:18:33.735Z,97590.56
2022-11-16T12:21:13.896Z,97592.59
2022-11-16T12:24:01.620Z,97583.78
2022-11-16T12:26:47.098Z,97584.34
2022-11-16T12:29:52.971Z,97587.34
2022-11-16T12:32:50.263Z,97581.44
2022-11-16T12:35:28.774Z,97592.31
2022-11-16T12:38:13.980Z,97587.38
2022-11-16T12:41:05.100Z,97588.25
2022-11-16T12:43:56.575Z,97586.97
2022-11-16T12:46:55.481Z,97584.66
2022-11-16T12:49:39.391Z,97580.59
2022-11-16T12:52:43.018Z,97581.59
2022-11-16T12:55:26.381Z,97570.19
2022-11-16T12:58:12.035Z,97579.84
2022-11-16T13:00:53.814Z,97574.97
2022-11-16T13:03:26.779Z,97563.81
2022-11-16T13:05:59.067Z,97572.13
2022-11-16T13:08:40.935Z,97568.03
2022-11-16T13:11:27.893Z,97566.53
2022-11-16T13:14:01.570Z,97569.59
2022-11-16T13:16:29.217Z,97563.00
2022-11-16T13:18:56.698Z,97561.16
2022-11-16T13:21:40.570Z,97555.16
2022-11-16T13:24:22.376Z,97560.94
2022-11-16T13:27:10.893Z,97554.75
2022-11-16T13:29:44.363Z,97550.56
2022-11-16T13:32:44.371Z,97546.91
2022-11-16T13:35:16.705Z,97549.28
2022-11-16T13:37:51.992Z,97541.69
2022-11-16T13:40:27.673Z,97541.66
2022-11-16T13:43:09.595Z,97535.59
2022-11-16T13:45:41.094Z,97540.91
2022-11-16T13:48:34.456Z,97535.88
2022-11-16T13:51:08.010Z,97530.44
2022-11-16T13:56:57.547Z,97524.75
2022-11-16T13:59:27.758Z,97525.22
2022-11-16T14:01:57.593Z,97523.13
2022-11-16T14:04:42.445Z,97519.91
2022-11-16T14:07:40.526Z,97515.31
2022-11-16T14:10:08.052Z,97516.44
2022-11-16T14:12:37.791Z,97516.59
2022-11-16T14:15:23.368Z,97513.47
2022-11-16T14:17:49.863Z,97510.16
2022-11-16T14:20:50.060Z,97508.50
2022-11-16T14:23:55.488Z,97510.75
2022-11-16T14:26:31.385Z,97496.72
2022-11-16T14:29:15.978Z,97500.00
2022-11-16T14:31:51.247Z,97502.88
2022-11-16T14:34:22.302Z,97502.13
2022-11-16T14:36:49.899Z,97494.34
2022-11-16T14:39:40.062Z,97501.94
2022-11-16T14:42:48.178Z,97503.66
2022-11-16T14:45:30.570Z,97500.00
2022-11-16T14:48:15.637Z,97496.97
2022-11-16T14:50:45.858Z,97493.88
2022-11-16T14:53:19.214Z,97497.06
2022-11-16T14:55:46.297Z,97498.13
2022-11-16T14:58:18.746Z,97494.00
2022-11-16T15:00:58.492Z,97485.28
2022-11-16T15:03:28.199Z,97484.72
2022-11-16T15:06:00.834Z,97485.97
2022-11-16T15:08:38.620Z,97488.91
2022-11-16T15:11:10.401Z,97482.72
2022-11-16T15:13:37.377Z,97480.44
2022-11-16T15:16:20.207Z,97492.06
2022-11-16T15:19:00.597Z,97482.91
2022-11-16T15:21:28.061Z,97475.25
2022-11-16T15:24:23.542Z,97487.53
2022-11-16T15:26:41.281Z,97485.03
2022-11-16T15:29:16.149Z,97484.19
2022-11-16T15:31:43.249Z,97488.75
2022-11-16T15:34:17.326Z,97489.16
2022-11-16T15:36:44.302Z,97486.06
2022-11-16T15:39:20.586Z,97490.63
2022-11-16T15:41:47.680Z,97488.16
2022-11-16T15:44:17.308Z,97497.06
2022-11-16T15:46:50.154Z,97492.94
2022-11-16T15:49:24.973Z,97493.75
2022-11-16T15:51:51.576Z,97497.91
2022-11-16T15:54:29.078Z,97495.00
2022-11-16T15:57:03.855Z,97494.16
2022-11-16T15:59:33.308Z,97496.84
2022-11-16T16:02:00.296Z,97488.97
2022-11-16T16:04:28.893Z,97501.00
2022-11-16T16:06:58.129Z,97502.88
2022-11-16T16:09:30.727Z,97498.31
2022-11-16T16:12:17.620Z,97499.56
2022-11-16T16:14:44.904Z,97487.34
2022-11-16T16:17:21.428Z,97506.44
2022-11-16T16:19:58.252Z,97495.00
2022-11-16T16:22:32.130Z,97492.06
2022-11-16T16:24:59.440Z,97497.91
2022-11-16T16:27:29.398Z,97496.47
2022-11-16T16:29:58.477Z,97485.66
2022-11-16T16:32:27.912Z,97488.97
2022-11-16T16:34:56.358Z,97488.75
2022-11-16T16:37:25.315Z,97488.75
2022-11-16T16:39:51.865Z,97485.22
2022-11-16T16:42:18.624Z,97488.16
2022-11-16T16:44:47.120Z,97479.84
2022-11-16T16:47:16.504Z,97471.09
2022-11-16T16:49:43.550Z,97480.03
2022-11-16T16:52:12.414Z,97486.03
2022-11-16T16:54:39.501Z,97474.00
2022-11-16T16:57:06.206Z,97467.16
2022-11-16T16:59:32.837Z,97475.00
2022-11-16T17:01:59.867Z,97474.59
2022-11-16T17:04:26.642Z,97464.84
2022-11-16T17:06:54.128Z,97468.19
2022-11-16T17:09:21.087Z,97468.56
2022-11-16T17:11:48.318Z,97463.59
2022-11-16T17:14:15.005Z,97467.50
2022-11-16T17:16:41.682Z,97478.72
2022-11-16T17:19:08.278Z,97472.91
2022-11-16T17:21:34.811Z,97471.22
2022-11-16T17:24:01.498Z,97477.03
2022-11-16T17:26:29.185Z,97485.31
2022-11-16T17:28:57.211Z,97484.91
2022-11-16T17:31:24.658Z,97481.59
2022-11-16T17:33:51.682Z,97484.06
2022-11-16T17:36:18.734Z,97481.56
2022-11-16T17:38:45.448Z,97479.47
2022-11-16T17:41:21.596Z,97475.50
2022-11-16T17:43:48.562Z,97475.50
2022-11-16T17:46:17.824Z,97473.00
2022-11-16T17:48:47.164Z,97462.44
2022-11-16T17:51:16.814Z,97460.78
2022-11-16T17:53:44.351Z,97466.75
2022-11-16T17:56:12.511Z,97467.16
2022-11-16T17:58:39.379Z,97460.75
2022-11-16T18:01:06.260Z,97457.41
2022-11-16T18:03:36.229Z,97465.06
2022-11-16T18:06:13.280Z,97465.06
2022-11-16T18:08:41.180Z,97462.81
2022-11-16T18:11:28.323Z,97452.84
2022-11-16T18:14:00.674Z,97459.50
2022-11-16T18:16:32.589Z,97461.13
2022-11-16T18:19:05.109Z,97452.88
2022-11-16T18:21:37.820Z,97459.94
2022-11-16T18:24:04.560Z,97453.09
2022-11-16T18:26:31.141Z,97446.25
2022-11-16T18:28:57.820Z,97447.53
2022-11-16T18:31:25.484Z,97450.63
2022-11-16T18:33:52.248Z,97451.66
2022-11-16T18:36:20.448Z,97450.03
2022-11-16T18:38:47.713Z,97451.25
2022-11-16T18:41:19.788Z,97447.72
2022-11-16T18:43:53.452Z,97451.84
2022-11-16T18:46:21.585Z,97451.84
2022-11-16T18:48:48.429Z,97457.06
2022-11-16T18:51:16.508Z,97453.13
2022-11-16T18:53:43.270Z,97450.81
2022-11-16T18:56:11.898Z,97448.97
2022-11-16T18:58:54.657Z,97443.75
2022-11-16T19:01:23.964Z,97444.97
2022-11-16T19:03:51.958Z,97449.75
2022-11-16T19:06:18.968Z,97446.22
2022-11-16T19:08:50.418Z,97444.13
2022-11-16T19:11:20.642Z,97449.13
2022-11-16T19:13:53.114Z,97441.66
2022-11-16T19:16:19.786Z,97442.69
2022-11-16T19:18:46.364Z,97443.50
2022-11-16T19:21:15.423Z,97440.41
2022-11-16T19:23:47.137Z,97445.97
2022-11-16T19:26:15.375Z,97442.25
2022-11-16T19:28:44.149Z,97449.06
2022-11-16T19:31:12.231Z,97444.06
2022-11-16T19:33:39.201Z,97446.75
2022-11-16T19:36:16.965Z,97445.13
2022-11-16T19:38:45.245Z,97450.28
2022-11-16T19:41:13.031Z,97438.47
2022-11-16T19:43:39.652Z,97440.09
2022-11-16T19:46:08.843Z,97448.34
2022-11-16T19:48:36.228Z,97447.72
2022-11-16T19:51:10.690Z,97444.34
2022-11-16T19:53:38.575Z,97448.34
2022-11-16T19:56:07.018Z,97449.63
2022-11-16T19:58:39.486Z,97441.50
2022-11-16T20:01:14.834Z,97446.91
2022-11-16T20:03:42.277Z,97447.50
2022-11-16T20:06:14.142Z,97450.00
2022-11-16T20:08:42.594Z,97445.81
2022-11-16T20:11:23.421Z,97448.06
2022-11-16T20:13:52.084Z,97436.00
2022-11-16T20:16:22.202Z,97443.91
2022-11-16T20:18:50.960Z,97441.41
2022-11-16T20:21:33.036Z,97439.16
2022-11-16T20:24:06.143Z,97422.78
2022-11-16T20:26:35.039Z,97426.16
2022-11-16T20:29:01.635Z,97422.03
2022-11-16T20:31:33.546Z,97421.13
2022-11-16T20:34:05.410Z,97426.31
2022-11-16T20:36:33.574Z,97423.63
2022-11-16T20:39:01.154Z,97420.38
2022-11-16T20:41:30.538Z,97419.34
2022-11-16T20:43:59.302Z,97410.34
2022-11-16T20:46:28.430Z,97419.91
2022-11-16T20:48:57.199Z,97412.22
2022-11-16T20:51:24.055Z,97416.38
2022-11-16T20:53:52.005Z,97412.03
2022-11-16T20:56:19.936Z,97407.94
2022-11-16T20:58:48.049Z,97405.66
2022-11-16T21:01:28.838Z,97414.16
2022-11-16T21:03:56.590Z,97402.56
2022-11-16T21:06:23.261Z,97406.31
2022-11-16T21:08:49.954Z,97408.34
2022-11-16T21:11:25.464Z,97405.06
2022-11-16T21:14:10.838Z,97411.69
2022-11-16T21:16:38.073Z,97409.22
2022-11-16T21:19:05.577Z,97416.88
2022-11-16T21:21:32.320Z,97416.44
2022-11-16T21:23:59.697Z,97427.03
2022-11-16T21:26:31.014Z,97414.59
2022-11-16T21:28:59.037Z,97420.16
2022-11-16T21:31:29.725Z,97414.38
2022-11-16T21:33:56.968Z,97423.25
2022-11-16T21:36:25.864Z,97422.91
2022-11-16T21:38:53.100Z,97427.84
2022-11-16T21:41:21.409Z,97423.09
2022-11-16T21:43:48.308Z,97421.47
2022-11-16T21:46:20.728Z,97414.41
2022-11-16T21:48:48.193Z,97421.69
2022-11-16T21:51:16.817Z,97419.78
2022-11-16T21:53:44.055Z,97409.03
2022-11-16T21:56:16.468Z,97420.44
2022-11-16T21:58:43.405Z,97411.72
2022-11-16T22:01:11.399Z,97401.16
2022-11-16T22:03:38.506Z,97404.88
2022-11-16T22:06:26.182Z,97398.91
2022-11-16T22:08:52.904Z,97400.16
2022-11-16T22:11:22.147Z,97389.75
2022-11-16T22:13:49.836Z,97395.56
2022-11-16T22:16:18.392Z,97389.78
2022-11-16T22:18:44.939Z,97383.16
2022-11-16T22:21:11.910Z,97386.69
2022-11-16T22:23:39.036Z,97394.34
2022-11-16T22:26:13.551Z,97383.59
2022-11-16T22:28:40.505Z,97376.97
2022-11-16T22:31:10.776Z,97374.28
2022-11-16T22:33:37.858Z,97373.69
2022-11-16T22:36:05.791Z,97365.38
2022-11-16T22:38:33.608Z,97360.81
2022-11-16T22:41:00.185Z,97354.41
2022-11-16T22:43:28.650Z,97355.66
2022-11-16T22:45:59.083Z,97364.56
2022-11-16T22:48:44.970Z,97352.53
2022-11-16T22:51:20.712Z,97345.91
2022-11-16T22:53:47.423Z,97352.75
2022-11-16T22:56:14.074Z,97353.81
2022-11-16T22:58:40.887Z,97351.13
2022-11-16T23:01:09.129Z,97339.09
2022-11-16T23:03:36.974Z,97336.41
2022-11-16T23:06:04.955Z,97334.31
2022-11-16T23:08:32.121Z,97334.94
2022-11-16T23:11:31.108Z,97341.38
2022-11-16T23:14:17.076Z,97339.91
2022-11-16T23:16:44.149Z,97328.09
2022-11-16T23:19:31.311Z,97330.56
2022-11-16T23:22:27.358Z,97328.09
2022-11-16T23:25:12.764Z,97331.00
2022-11-16T23:27:49.509Z,97341.38
2022-11-16T23:30:16.186Z,97345.72
2022-11-16T23:32:42.890Z,97346.34
2022-11-16T23:35:10.248Z,97343.22
2022-11-16T23:37:52.957Z,97346.34
2022-11-16T23:40:20.300Z,97344.28
2022-11-16T23:43:05.299Z,97351.72
2022-11-16T23:45:31.920Z,97342.38
2022-11-16T23:47:58.608Z,97347.16
2022-11-16T23:50:25.355Z,97349.28
2022-11-16T23:52:51.946Z,97345.94
2022-11-16T23:55:18.596Z,97341.78
2022-11-16T23:57:45.146Z,97349.06
